createdAt,value
2018-11-12T00:00:26.763Z,8.9
2018-11-12T00:01:33.968Z,8.8
2018-11-12T00:02:40.894Z,8.8
2018-11-12T00:03:47.820Z,8.8
2018-11-12T00:04:54.756Z,8.8
2018-11-12T00:06:01.682Z,8.9
2018-11-12T00:07:08.669Z,8.9
2018-11-12T00:08:15.600Z,8.9
2018-11-12T00:09:22.532Z,8.9
2018-11-12T00:10:29.458Z,8.9
2018-11-12T00:11:36.384Z,8.9
2018-11-12T00:12:43.583Z,8.9
2018-11-12T00:13:50.509Z,8.9
2018-11-12T00:14:57.166Z,9
2018-11-12T00:16:04.105Z,8.9
2018-11-12T00:17:11.303Z,8.9
2018-11-12T00:18:18.503Z,8.9
2018-11-12T00:19:25.427Z,8.9
2018-11-12T00:20:32.622Z,8.8
2018-11-12T00:21:39.830Z,8.8
2018-11-12T00:22:47.077Z,8.8
2018-11-12T00:23:54.010Z,8.8
2018-11-12T00:25:01.214Z,8.8
2018-11-12T00:26:08.142Z,8.7
2018-11-12T00:27:15.073Z,8.7
2018-11-12T00:28:22.271Z,8.7
2018-11-12T00:29:29.197Z,8.7
2018-11-12T00:30:36.123Z,8.6
2018-11-12T00:31:43.043Z,8.6
2018-11-12T00:32:49.970Z,8.6
2018-11-12T00:33:57.180Z,8.6
2018-11-12T00:35:04.380Z,8.5
2018-11-12T00:36:11.581Z,8.5
2018-11-12T00:37:17.964Z,8.5
2018-11-12T00:38:25.165Z,8.4
2018-11-12T00:39:32.085Z,8.3
2018-11-12T00:40:38.744Z,8.3
2018-11-12T00:41:45.671Z,8.3
2018-11-12T00:42:52.605Z,8.2
2018-11-12T00:43:59.810Z,8.2
2018-11-12T00:45:06.754Z,8.2
2018-11-12T00:46:13.958Z,8.1
2018-11-12T00:47:21.161Z,8.1
2018-11-12T00:48:28.364Z,8.1
2018-11-12T00:49:35.012Z,8.1
2018-11-12T00:50:41.949Z,8.1
2018-11-12T00:51:49.150Z,8.1
2018-11-12T00:52:56.351Z,8.1
2018-11-12T00:54:03.276Z,8.1
2018-11-12T00:55:09.902Z,8.1
2018-11-12T00:56:16.835Z,8
2018-11-12T00:57:24.044Z,8
2018-11-12T00:58:30.971Z,8
2018-11-12T00:59:38.171Z,7.9
2018-11-12T01:00:45.088Z,7.9
2018-11-12T01:01:51.738Z,7.9
2018-11-12T01:02:58.672Z,7.9
2018-11-12T01:04:06.034Z,7.8
2018-11-12T01:05:13.187Z,7.8
2018-11-12T01:06:20.388Z,7.7
2018-11-12T01:07:27.042Z,7.7
2018-11-12T01:08:34.245Z,7.6
2018-11-12T01:09:41.175Z,7.6
2018-11-12T01:10:47.835Z,7.6
2018-11-12T01:11:55.043Z,7.6
2018-11-12T01:13:02.245Z,7.6
2018-11-12T01:14:09.181Z,7.6
2018-11-12T01:15:16.382Z,7.6
2018-11-12T01:16:23.581Z,7.6
2018-11-12T01:17:30.786Z,7.5
2018-11-12T01:18:37.990Z,7.5
2018-11-12T01:19:44.917Z,7.5
2018-11-12T01:20:52.117Z,7.5
2018-11-12T01:21:59.316Z,7.4
2018-11-12T01:23:05.973Z,7.4
2018-11-12T01:24:12.895Z,7.4
2018-11-12T01:25:20.101Z,7.4
2018-11-12T01:26:27.305Z,7.4
2018-11-12T01:27:34.232Z,7.4
2018-11-12T01:28:40.878Z,7.4
2018-11-12T01:29:48.083Z,7.4
2018-11-12T01:30:55.290Z,7.3
2018-11-12T01:32:02.488Z,7.3
2018-11-12T01:33:09.405Z,7.3
2018-11-12T23:00:06.774Z,9.7
2018-11-12T23:01:13.986Z,9.7
2018-11-12T23:02:20.641Z,9.7
2018-11-12T23:03:27.569Z,9.7
2018-11-12T23:04:34.500Z,9.7
2018-11-12T23:05:41.149Z,9.7
2018-11-12T23:06:47.810Z,9.7
2018-11-12T23:07:55.017Z,9.8
2018-11-12T23:09:02.231Z,9.8
2018-11-12T23:10:09.422Z,9.8
2018-11-12T23:11:16.621Z,9.8
2018-11-12T23:12:23.638Z,9.7
2018-11-12T23:13:31.027Z,9.7
2018-11-12T23:14:37.952Z,9.6
2018-11-12T23:15:45.187Z,9.6
2018-11-12T23:16:52.393Z,9.6
2018-11-12T23:17:59.338Z,9.5
2018-11-12T23:19:05.986Z,9.5
2018-11-12T23:20:12.643Z,9.4
2018-11-12T23:21:19.844Z,9.4
2018-11-12T23:22:27.047Z,9.4
2018-11-12T23:23:34.252Z,9.3
2018-11-12T23:24:41.186Z,9.3
2018-11-12T23:25:48.382Z,9.3
2018-11-12T23:26:55.306Z,9.2
2018-11-12T23:28:02.239Z,9.2
2018-11-12T23:29:08.354Z,9.2
2018-11-12T23:30:15.288Z,9.1
2018-11-12T23:31:21.401Z,9.1
2018-11-12T23:32:28.054Z,9.1
2018-11-12T23:33:34.438Z,9.1
2018-11-12T23:34:40.822Z,9.1
2018-11-12T23:35:47.756Z,9.1
2018-11-12T23:36:54.698Z,9.1
2018-11-12T23:38:01.899Z,9.1
2018-11-12T23:39:08.563Z,9.1
2018-11-12T23:40:15.766Z,9.1
2018-11-12T23:41:22.972Z,9.1
2018-11-12T23:42:29.896Z,9.1
2018-11-12T23:43:36.544Z,9
2018-11-12T23:44:43.469Z,9
2018-11-12T23:45:50.682Z,9
2018-11-12T23:46:58.859Z,9
2018-11-12T23:48:06.319Z,9
2018-11-12T23:49:12.972Z,9
2018-11-12T23:50:20.175Z,8.9
2018-11-12T23:51:27.376Z,8.9
2018-11-12T23:52:34.588Z,8.9
2018-11-12T23:53:41.790Z,8.9
2018-11-12T23:54:48.994Z,8.9
2018-11-12T23:55:56.205Z,8.9
2018-11-12T23:57:03.406Z,8.9
2018-11-12T23:58:10.062Z,8.8
2018-11-12T23:59:16.711Z,8.8
